Ralpho, Pennsylvania
Current Conditions -  °F | °C
As of 9:53 PM on Friday 26 Dec 2014 (Local Time) from KSEG Reporting Station
Clear Clear  
Wind Chill: 29°   Ceiling: Unl
Heat Index: 29°   Visibility: 9mi
Dew Point: 26°   Wind: 0mph
Humidity: 89%   Direction: NA
Pressure: 30.24"   Gusts: NA
Location:  40.7842°N, 76.5797°W
Report Text: KSEG 270253Z AUTO 00000KT 9SM CLR M02/M03 A3024 RMK AO2 SLP243 T10171033 51001
Loading
Personal Weather Stations






























Interactive Weather Map New forecast layout! Learn more

10-Day Weather Forecast

Advertisements
Track Severe Weather on mobile